Wetterdaten: Woche 21.09.09 - 27.09.09 (KW39)
Datum Zeit Temp. A. Feuchte A. Luftdruck Regen Wind Richtung Taupunkt Windchill Windben
21.09.2009 00:00 13,9 C 92 % 1019,4 hPa 0,0 l/m 0,0 km/h N 12,6 C 13,9 C 0,4 km/h
21.09.2009 01:00 13,9 C 92 % 1019,5 hPa 0,0 l/m 0,0 km/h N 12,6 C 13,9 C 0,0 km/h
21.09.2009 02:00 13,4 C 93 % 1019,5 hPa 0,0 l/m 0,0 km/h N 12,2 C 13,4 C 0,0 km/h
21.09.2009 03:00 12,8 C 93 % 1019,7 hPa 0,0 l/m 0,0 km/h N 11,6 C 12,8 C 0,8 km/h
21.09.2009 04:00 12,8 C 93 % 1019,9 hPa 0,0 l/m 0,0 km/h N 11,7 C 12,8 C 1,2 km/h
21.09.2009 05:00 12,1 C 93 % 1020,2 hPa 0,0 l/m 0,0 km/h N 11,0 C 12,1 C 0,0 km/h
21.09.2009 06:00 11,7 C 94 % 1020,5 hPa 0,0 l/m 0,0 km/h N 10,7 C 11,7 C 0,0 km/h
21.09.2009 07:00 12,0 C 94 % 1021,3 hPa 0,0 l/m 0,0 km/h N 11,1 C 12,0 C 0,0 km/h
21.09.2009 08:00 14,0 C 94 % 1021,8 hPa 0,0 l/m 0,0 km/h N 13,0 C 14,0 C 0,0 km/h
21.09.2009 09:00 16,7 C 88 % 1021,9 hPa 0,0 l/m 0,1 km/h N 14,7 C 16,7 C 1,6 km/h
21.09.2009 10:00 18,6 C 81 % 1022,2 hPa 0,0 l/m 0,2 km/h N 15,1 C 18,6 C 1,6 km/h
21.09.2009 11:00 19,8 C 76 % 1022,4 hPa 0,0 l/m 0,4 km/h N 15,4 C 19,8 C 2,8 km/h
21.09.2009 12:00 21,2 C 73 % 1022,2 hPa 0,0 l/m 0,7 km/h N 16,1 C 21,2 C 3,2 km/h
21.09.2009 13:00 22,1 C 69 % 1021,9 hPa 0,0 l/m 0,4 km/h N 16,2 C 22,1 C 3,2 km/h
21.09.2009 14:00 23,1 C 66 % 1021,5 hPa 0,0 l/m 1,0 km/h NO 16,4 C 23,1 C 4,0 km/h
21.09.2009 15:00 24,2 C 60 % 1021,1 hPa 0,0 l/m 1,5 km/h S 15,9 C 24,2 C 6,0 km/h
21.09.2009 16:00 24,4 C 58 % 1020,9 hPa 0,0 l/m 0,9 km/h S 15,6 C 24,4 C 6,0 km/h
21.09.2009 17:00 23,5 C 62 % 1020,7 hPa 0,0 l/m 0,6 km/h N 15,8 C 23,5 C 4,4 km/h
21.09.2009 18:00 21,5 C 68 % 1021,0 hPa 0,0 l/m 0,0 km/h N 15,4 C 21,5 C 0,0 km/h
21.09.2009 19:00 18,8 C 81 % 1021,5 hPa 0,0 l/m 0,0 km/h N 15,5 C 18,8 C 0,4 km/h
21.09.2009 20:00 17,5 C 86 % 1022,0 hPa 0,0 l/m 0,0 km/h N 15,2 C 17,5 C 0,0 km/h
21.09.2009 21:00 16,7 C 88 % 1022,4 hPa 0,0 l/m 0,0 km/h N 14,6 C 16,7 C 1,2 km/h
21.09.2009 22:00 16,3 C 88 % 1022,5 hPa 0,0 l/m 0,0 km/h N 14,3 C 16,3 C 0,8 km/h
21.09.2009 23:00 16,0 C 89 % 1022,7 hPa 0,0 l/m 0,0 km/h N 14,1 C 16,0 C 1,2 km/h
22.09.2009 00:00 15,4 C 90 % 1022,9 hPa 0,0 l/m 0,1 km/h N 13,8 C 15,4 C 3,2 km/h
22.09.2009 01:00 14,8 C 90 % 1023,0 hPa 0,0 l/m 0,0 km/h N 13,1 C 14,8 C 1,2 km/h
22.09.2009 02:00 14,3 C 91 % 1023,1 hPa 0,0 l/m 0,0 km/h N 12,8 C 14,3 C 0,4 km/h
22.09.2009 03:00 13,9 C 92 % 1023,2 hPa 0,0 l/m 0,0 km/h N 12,6 C 13,9 C 1,2 km/h
22.09.2009 04:00 13,3 C 92 % 1023,3 hPa 0,0 l/m 0,0 km/h N 11,9 C 13,3 C 0,8 km/h
22.09.2009 05:00 13,0 C 92 % 1023,6 hPa 0,0 l/m 0,0 km/h N 11,7 C 13,0 C 0,4 km/h
22.09.2009 06:00 13,0 C 92 % 1023,9 hPa 0,0 l/m 0,1 km/h N 11,7 C 13,0 C 0,8 km/h
22.09.2009 07:00 12,8 C 93 % 1024,6 hPa 0,0 l/m 0,0 km/h N 11,6 C 12,8 C 0,8 km/h
22.09.2009 08:00 15,0 C 90 % 1024,7 hPa 0,0 l/m 0,2 km/h N 13,3 C 15,0 C 3,6 km/h
22.09.2009 09:00 17,5 C 82 % 1024,8 hPa 0,0 l/m 0,1 km/h N 14,4 C 17,5 C 2,0 km/h
22.09.2009 10:00 19,9 C 77 % 1024,7 hPa 0,0 l/m 0,1 km/h N 15,6 C 19,9 C 1,2 km/h
22.09.2009 11:00 21,4 C 69 % 1024,7 hPa 0,0 l/m 0,3 km/h N 15,3 C 21,4 C 2,8 km/h
22.09.2009 12:00 22,8 C 64 % 1024,7 hPa 0,0 l/m 0,5 km/h N 15,7 C 22,8 C 2,8 km/h
22.09.2009 13:00 23,8 C 58 % 1024,3 hPa 0,0 l/m 0,8 km/h O 15,1 C 23,8 C 4,8 km/h
22.09.2009 14:00 24,9 C 51 % 1023,8 hPa 0,0 l/m 1,5 km/h W-SW 13,9 C 24,9 C 7,2 km/h
22.09.2009 15:00 24,6 C 50 % 1023,5 hPa 0,0 l/m 1,2 km/h O 13,6 C 24,6 C 4,4 km/h
22.09.2009 16:00 24,5 C 50 % 1023,3 hPa 0,0 l/m 0,6 km/h N 13,4 C 24,5 C 3,2 km/h
22.09.2009 17:00 23,8 C 53 % 1023,2 hPa 0,0 l/m 0,2 km/h N 13,7 C 23,8 C 2,0 km/h
22.09.2009 18:00 21,3 C 63 % 1023,3 hPa 0,0 l/m 0,0 km/h N 13,7 C 21,3 C 0,0 km/h
22.09.2009 19:00 18,2 C 75 % 1023,8 hPa 0,0 l/m 0,0 km/h N 13,6 C 18,2 C 0,0 km/h
22.09.2009 20:00 16,9 C 78 % 1024,3 hPa 0,0 l/m 0,0 km/h N 13,1 C 16,9 C 0,0 km/h
22.09.2009 21:00 16,3 C 80 % 1024,8 hPa 0,0 l/m 0,0 km/h N 12,9 C 16,3 C 0,8 km/h
22.09.2009 22:00 15,8 C 82 % 1024,8 hPa 0,0 l/m 0,1 km/h N 12,8 C 15,8 C 2,0 km/h
22.09.2009 23:00 15,5 C 83 % 1024,7 hPa 0,0 l/m 0,1 km/h N 12,6 C 15,5 C 2,4 km/h
23.09.2009 00:00 15,0 C 85 % 1024,6 hPa 0,0 l/m 0,1 km/h N 12,4 C 15,0 C 3,2 km/h
23.09.2009 01:00 14,5 C 87 % 1024,7 hPa 0,0 l/m 0,1 km/h N 12,2 C 14,5 C 2,8 km/h
23.09.2009 02:00 14,2 C 86 % 1024,6 hPa 0,0 l/m 0,0 km/h N 11,9 C 14,2 C 2,0 km/h
23.09.2009 03:00 13,6 C 88 % 1024,3 hPa 0,0 l/m 0,1 km/h N 11,6 C 13,6 C 2,4 km/h
23.09.2009 04:00 12,8 C 90 % 1024,5 hPa 0,0 l/m 0,1 km/h N 11,1 C 12,8 C 1,6 km/h
23.09.2009 05:00 12,1 C 91 % 1024,7 hPa 0,0 l/m 0,0 km/h N 10,6 C 12,1 C 1,2 km/h
23.09.2009 06:00 12,1 C 91 % 1024,9 hPa 0,0 l/m 0,0 km/h N 10,7 C 12,1 C 0,4 km/h
23.09.2009 07:00 12,3 C 92 % 1025,1 hPa 0,0 l/m 0,0 km/h N 11,0 C 12,3 C 0,0 km/h
23.09.2009 08:00 14,4 C 88 % 1025,4 hPa 0,0 l/m 0,0 km/h N 12,3 C 14,4 C 0,8 km/h
23.09.2009 09:00 16,8 C 81 % 1025,5 hPa 0,0 l/m 0,0 km/h N 13,6 C 16,8 C 0,8 km/h
23.09.2009 10:00 19,1 C 73 % 1025,6 hPa 0,0 l/m 0,3 km/h N 14,2 C 19,1 C 4,0 km/h
23.09.2009 11:00 21,1 C 68 % 1025,4 hPa 0,0 l/m 0,3 km/h N 15,0 C 21,1 C 3,6 km/h
23.09.2009 12:00 23,0 C 64 % 1024,9 hPa 0,0 l/m 0,4 km/h N 15,9 C 23,0 C 3,6 km/h
23.09.2009 13:00 23,8 C 61 % 1024,3 hPa 0,0 l/m 0,5 km/h N 15,7 C 23,8 C 3,6 km/h
23.09.2009 14:00 25,3 C 54 % 1023,7 hPa 0,0 l/m 0,9 km/h N-NO 15,1 C 25,3 C 4,4 km/h
23.09.2009 15:00 25,7 C 50 % 1023,0 hPa 0,0 l/m 1,1 km/h N-NW 14,6 C 25,7 C 5,2 km/h
23.09.2009 16:00 25,5 C 49 % 1022,4 hPa 0,0 l/m 0,6 km/h N 14,0 C 25,5 C 3,6 km/h
23.09.2009 17:00 24,4 C 55 % 1022,0 hPa 0,0 l/m 0,1 km/h N 14,8 C 24,4 C 1,6 km/h
23.09.2009 18:00 22,0 C 67 % 1021,9 hPa 0,0 l/m 0,0 km/h N 15,6 C 22,0 C 0,8 km/h
23.09.2009 19:00 19,8 C 75 % 1022,2 hPa 0,0 l/m 0,0 km/h N 15,2 C 19,8 C 0,4 km/h
23.09.2009 20:00 18,2 C 79 % 1022,4 hPa 0,0 l/m 0,0 km/h N 14,4 C 18,2 C 0,0 km/h
23.09.2009 21:00 17,6 C 81 % 1022,5 hPa 0,0 l/m 0,0 km/h SW 14,3 C 17,6 C 2,8 km/h
23.09.2009 22:00 17,9 C 80 % 1022,1 hPa 0,0 l/m 1,8 km/h S 14,3 C 17,9 C 8,8 km/h
23.09.2009 23:00 17,3 C 82 % 1022,0 hPa 0,0 l/m 0,6 km/h S 14,2 C 17,3 C 5,2 km/h
24.09.2009 00:00 17,3 C 81 % 1021,8 hPa 0,0 l/m 0,4 km/h N 14,0 C 17,3 C 5,6 km/h
24.09.2009 01:00 17,4 C 78 % 1021,5 hPa 0,0 l/m 0,3 km/h N 13,5 C 17,4 C 4,4 km/h
24.09.2009 02:00 15,5 C 84 % 1021,3 hPa 0,0 l/m 0,1 km/h N 12,8 C 15,5 C 2,0 km/h
24.09.2009 03:00 14,2 C 89 % 1021,2 hPa 0,0 l/m 0,0 km/h N 12,5 C 14,2 C 1,2 km/h
24.09.2009 04:00 14,7 C 90 % 1021,2 hPa 0,0 l/m 0,1 km/h NW 13,0 C 14,7 C 2,0 km/h
24.09.2009 05:00 17,5 C 80 % 1021,3 hPa 0,0 l/m 0,9 km/h NW 13,9 C 17,5 C 4,0 km/h
24.09.2009 06:00 16,9 C 80 % 1021,5 hPa 0,0 l/m 0,8 km/h NW 13,4 C 16,9 C 2,8 km/h
24.09.2009 07:00 16,7 C 81 % 1021,6 hPa 0,0 l/m 0,9 km/h NW 13,4 C 16,7 C 3,6 km/h
24.09.2009 08:00 17,7 C 75 % 1021,7 hPa 0,0 l/m 0,3 km/h N 13,3 C 17,7 C 3,2 km/h
24.09.2009 09:00 19,0 C 69 % 1021,8 hPa 0,0 l/m 1,5 km/h N-NW 13,2 C 19,0 C 5,2 km/h
24.09.2009 10:00 20,0 C 66 % 1021,9 hPa 0,0 l/m 1,9 km/h N-NW 13,3 C 20,0 C 6,8 km/h
24.09.2009 11:00 21,3 C 59 % 1021,7 hPa 0,0 l/m 1,9 km/h N-NW 13,0 C 21,3 C 6,4 km/h
24.09.2009 12:00 22,5 C 56 % 1020,9 hPa 0,0 l/m 1,9 km/h N-NO 13,2 C 22,5 C 6,0 km/h
24.09.2009 13:00 23,1 C 56 % 1020,3 hPa 0,0 l/m 1,9 km/h NO 13,7 C 23,1 C 6,0 km/h
24.09.2009 14:00 23,4 C 57 % 1019,8 hPa 0,0 l/m 2,3 km/h N-NO 14,3 C 23,4 C 7,2 km/h
24.09.2009 15:00 23,5 C 59 % 1019,3 hPa 0,0 l/m 1,8 km/h N-NW 14,9 C 23,5 C 7,6 km/h
24.09.2009 16:00 23,2 C 58 % 1018,6 hPa 0,0 l/m 2,4 km/h N-NW 14,5 C 23,2 C 6,0 km/h
24.09.2009 17:00 22,2 C 61 % 1018,6 hPa 0,0 l/m 1,3 km/h N-NW 14,3 C 22,2 C 5,2 km/h
24.09.2009 18:00 20,9 C 66 % 1018,5 hPa 0,0 l/m 0,1 km/h N 14,2 C 20,9 C 1,2 km/h
24.09.2009 19:00 17,9 C 79 % 1018,8 hPa 0,0 l/m 0,0 km/h N 14,1 C 17,9 C 0,0 km/h
24.09.2009 20:00 17,5 C 81 % 1019,2 hPa 0,0 l/m 0,0 km/h N 14,1 C 17,5 C 0,0 km/h
24.09.2009 21:00 17,7 C 80 % 1019,5 hPa 0,0 l/m 0,0 km/h N 14,2 C 17,7 C 0,8 km/h
24.09.2009 22:00 18,1 C 79 % 1019,7 hPa 0,0 l/m 0,0 km/h N 14,4 C 18,1 C 0,8 km/h
24.09.2009 23:00 17,8 C 79 % 1020,0 hPa 0,0 l/m 0,0 km/h N 14,1 C 17,8 C 0,4 km/h
25.09.2009 00:00 17,8 C 75 % 1020,1 hPa 0,0 l/m 0,0 km/h N 13,4 C 17,8 C 0,4 km/h
25.09.2009 01:00 17,6 C 76 % 1020,3 hPa 0,0 l/m 0,5 km/h N-NW 13,3 C 17,6 C 2,0 km/h
25.09.2009 02:00 17,4 C 75 % 1020,4 hPa 0,0 l/m 0,5 km/h N 12,9 C 17,4 C 2,4 km/h
25.09.2009 03:00 16,5 C 78 % 1020,4 hPa 0,0 l/m 0,2 km/h N 12,6 C 16,5 C 2,4 km/h
25.09.2009 04:00 16,0 C 82 % 1020,6 hPa 0,0 l/m 1,5 km/h NW 12,9 C 16,0 C 4,4 km/h
25.09.2009 05:00 15,6 C 82 % 1020,9 hPa 0,0 l/m 1,2 km/h N-NW 12,6 C 15,6 C 3,6 km/h
25.09.2009 06:00 15,9 C 82 % 1021,4 hPa 0,0 l/m 0,9 km/h N 12,8 C 15,9 C 3,6 km/h
25.09.2009 07:00 16,0 C 81 % 1022,1 hPa 0,0 l/m 0,8 km/h N 12,7 C 16,0 C 4,0 km/h
25.09.2009 08:00 16,2 C 77 % 1022,7 hPa 0,0 l/m 2,0 km/h N-NO 12,1 C 16,2 C 6,0 km/h
25.09.2009 09:00 16,0 C 78 % 1023,3 hPa 0,0 l/m 2,7 km/h N-NW 12,1 C 16,0 C 6,4 km/h
25.09.2009 10:00 16,1 C 77 % 1023,8 hPa 0,0 l/m 3,3 km/h N-NO 12,1 C 16,1 C 8,4 km/h
25.09.2009 11:00 15,7 C 80 % 1024,1 hPa 0,0 l/m 2,4 km/h NW 12,2 C 15,7 C 6,8 km/h
25.09.2009 12:00 16,5 C 75 % 1024,0 hPa 0,0 l/m 2,6 km/h S-SW 12,1 C 16,5 C 8,9 km/h
25.09.2009 13:00 17,0 C 73 % 1023,8 hPa 0,0 l/m 3,7 km/h NW 12,2 C 17,0 C 11,7 km/h
25.09.2009 14:00 18,2 C 68 % 1023,4 hPa 0,0 l/m 4,2 km/h NW 12,3 C 18,2 C 12,1 km/h
25.09.2009 15:00 18,8 C 65 % 1022,7 hPa 0,0 l/m 3,5 km/h NW 12,0 C 18,8 C 9,7 km/h
25.09.2009 16:00 18,9 C 63 % 1022,4 hPa 0,0 l/m 3,9 km/h N-NW 11,6 C 18,9 C 10,5 km/h
25.09.2009 17:00 18,4 C 63 % 1022,4 hPa 0,0 l/m 3,3 km/h N-NW 11,1 C 18,4 C 8,4 km/h
25.09.2009 18:00 17,0 C 70 % 1022,6 hPa 0,0 l/m 0,2 km/h N 11,5 C 17,0 C 2,8 km/h
25.09.2009 19:00 15,2 C 76 % 1023,0 hPa 0,0 l/m 0,0 km/h N 11,0 C 15,2 C 0,8 km/h
25.09.2009 20:00 14,1 C 78 % 1023,5 hPa 0,0 l/m 0,0 km/h N 10,4 C 14,1 C 0,8 km/h
25.09.2009 21:00 13,1 C 81 % 1024,1 hPa 0,0 l/m 0,1 km/h N 10,0 C 13,1 C 1,2 km/h
25.09.2009 22:00 12,7 C 83 % 1024,7 hPa 0,0 l/m 0,0 km/h N 9,9 C 12,7 C 0,4 km/h
25.09.2009 23:00 11,9 C 83 % 1025,1 hPa 0,0 l/m 0,0 km/h N 9,2 C 11,9 C 0,8 km/h
26.09.2009 00:00 11,9 C 82 % 1025,5 hPa 0,0 l/m 0,1 km/h N 8,9 C 11,9 C 2,8 km/h
26.09.2009 01:00 11,3 C 82 % 1025,5 hPa 0,0 l/m 0,2 km/h N 8,4 C 11,3 C 4,0 km/h
26.09.2009 02:00 10,9 C 83 % 1025,6 hPa 0,0 l/m 0,2 km/h N 8,1 C 10,9 C 3,2 km/h
26.09.2009 03:00 10,5 C 84 % 1025,8 hPa 0,0 l/m 0,1 km/h N 7,9 C 10,5 C 2,0 km/h
26.09.2009 04:00 9,9 C 85 % 1025,8 hPa 0,0 l/m 0,1 km/h N 7,6 C 9,9 C 2,8 km/h
26.09.2009 05:00 10,0 C 85 % 1026,0 hPa 0,0 l/m 0,2 km/h N 7,6 C 10,0 C 3,2 km/h
26.09.2009 06:00 9,6 C 86 % 1026,1 hPa 0,0 l/m 0,4 km/h N 7,4 C 9,6 C 5,6 km/h
26.09.2009 07:00 9,6 C 87 % 1026,4 hPa 0,0 l/m 0,1 km/h N 7,4 C 9,6 C 4,0 km/h
26.09.2009 08:00 11,0 C 84 % 1026,8 hPa 0,0 l/m 0,0 km/h N 8,3 C 11,0 C 0,8 km/h
26.09.2009 09:00 13,2 C 76 % 1027,1 hPa 0,0 l/m 0,7 km/h N-NW 8,9 C 13,2 C 3,2 km/h
26.09.2009 10:00 14,4 C 72 % 1027,2 hPa 0,0 l/m 0,6 km/h N 9,3 C 14,4 C 3,2 km/h
26.09.2009 11:00 16,0 C 68 % 1027,0 hPa 0,0 l/m 0,6 km/h O-SO 10,0 C 16,0 C 3,2 km/h
26.09.2009 12:00 17,3 C 64 % 1026,8 hPa 0,0 l/m 1,1 km/h O-NO 10,3 C 17,3 C 4,8 km/h
26.09.2009 13:00 18,0 C 60 % 1026,5 hPa 0,0 l/m 1,3 km/h O-NO 10,1 C 18,0 C 5,2 km/h
26.09.2009 14:00 18,7 C 58 % 1026,2 hPa 0,0 l/m 1,5 km/h O-SO 10,3 C 18,7 C 4,8 km/h
26.09.2009 15:00 19,5 C 55 % 1025,9 hPa 0,0 l/m 1,3 km/h O 10,2 C 19,5 C 5,2 km/h
26.09.2009 16:00 19,6 C 55 % 1025,6 hPa 0,0 l/m 0,9 km/h O 10,2 C 19,6 C 4,8 km/h
26.09.2009 17:00 19,5 C 55 % 1025,4 hPa 0,0 l/m 0,4 km/h N 10,2 C 19,5 C 2,8 km/h
26.09.2009 18:00 17,8 C 59 % 1025,7 hPa 0,0 l/m 0,2 km/h N 9,7 C 17,8 C 1,6 km/h
26.09.2009 19:00 14,2 C 76 % 1026,1 hPa 0,0 l/m 0,0 km/h N 9,9 C 14,2 C 0,0 km/h
26.09.2009 20:00 13,3 C 79 % 1026,3 hPa 0,0 l/m 0,0 km/h N 9,7 C 13,3 C 0,0 km/h
26.09.2009 21:00 11,9 C 83 % 1026,4 hPa 0,0 l/m 0,0 km/h N 9,0 C 11,9 C 0,4 km/h
26.09.2009 22:00 10,5 C 87 % 1026,4 hPa 0,0 l/m 0,0 km/h N 8,4 C 10,5 C 0,0 km/h
26.09.2009 23:00 9,8 C 89 % 1026,4 hPa 0,0 l/m 0,0 km/h N 8,0 C 9,8 C 0,0 km/h
27.09.2009 00:00 9,1 C 90 % 1026,4 hPa 0,0 l/m 0,0 km/h N 7,6 C 9,1 C 0,0 km/h
27.09.2009 01:00 8,8 C 91 % 1026,4 hPa 0,0 l/m 0,0 km/h N 7,4 C 8,8 C 0,0 km/h
27.09.2009 02:00 8,2 C 91 % 1026,4 hPa 0,0 l/m 0,0 km/h N 6,8 C 8,2 C 0,0 km/h
27.09.2009 03:00 7,9 C 92 % 1026,4 hPa 0,0 l/m 0,0 km/h N 6,6 C 7,9 C 0,0 km/h
27.09.2009 04:00 7,5 C 92 % 1026,3 hPa 0,0 l/m 0,0 km/h N 6,3 C 7,5 C 0,0 km/h
27.09.2009 05:00 7,4 C 92 % 1026,4 hPa 0,0 l/m 0,0 km/h N 6,3 C 7,4 C 0,0 km/h
27.09.2009 06:00 7,2 C 93 % 1026,7 hPa 0,0 l/m 0,0 km/h N 6,1 C 7,2 C 0,0 km/h
27.09.2009 07:00 7,5 C 93 % 1026,9 hPa 0,0 l/m 0,0 km/h N 6,4 C 7,5 C 0,0 km/h
27.09.2009 08:00 10,0 C 94 % 1026,8 hPa 0,0 l/m 0,0 km/h N 9,1 C 10,0 C 0,4 km/h
27.09.2009 09:00 13,2 C 84 % 1026,8 hPa 0,0 l/m 0,1 km/h S-SW 10,6 C 13,2 C 2,0 km/h
27.09.2009 10:00 15,5 C 75 % 1026,7 hPa 0,0 l/m 1,2 km/h S 11,0 C 15,5 C 6,8 km/h
27.09.2009 11:00 17,8 C 68 % 1026,4 hPa 0,0 l/m 0,4 km/h N 11,8 C 17,8 C 4,0 km/h
27.09.2009 12:00 20,6 C 60 % 1025,9 hPa 0,0 l/m 1,2 km/h SW 12,5 C 20,6 C 6,8 km/h
27.09.2009 13:00 22,0 C 53 % 1025,4 hPa 0,0 l/m 1,7 km/h O-NO 12,0 C 22,0 C 11,3 km/h
27.09.2009 14:00 21,6 C 55 % 1025,0 hPa 0,0 l/m 2,0 km/h O 12,2 C 21,6 C 7,2 km/h
27.09.2009 15:00 22,6 C 51 % 1024,5 hPa 0,0 l/m 1,5 km/h O-NO 11,9 C 22,6 C 6,8 km/h
27.09.2009 16:00 22,7 C 48 % 1024,0 hPa 0,0 l/m 1,6 km/h O-SO 11,0 C 22,7 C 7,2 km/h
27.09.2009 17:00 21,9 C 49 % 1023,9 hPa 0,0 l/m 0,8 km/h N 10,5 C 21,9 C 5,6 km/h
27.09.2009 18:00 19,4 C 60 % 1023,9 hPa 0,0 l/m 0,1 km/h N 11,3 C 19,4 C 1,2 km/h
27.09.2009 19:00 16,1 C 72 % 1024,1 hPa 0,0 l/m 0,0 km/h N 11,0 C 16,1 C 0,4 km/h
27.09.2009 20:00 14,6 C 78 % 1024,0 hPa 0,0 l/m 0,1 km/h N 10,7 C 14,6 C 1,2 km/h
27.09.2009 21:00 14,2 C 78 % 1023,9 hPa 0,0 l/m 0,0 km/h N 10,4 C 14,2 C 0,8 km/h
27.09.2009 22:00 15,8 C 73 % 1023,6 hPa 0,0 l/m 0,4 km/h N 10,9 C 15,8 C 4,4 km/h
27.09.2009 23:00 13,6 C 81 % 1023,3 hPa 0,0 l/m 0,1 km/h N 10,3 C 13,6 C 2,4 km/h
Min-Datum _ 27.09.09 27.09.09 24.09.09 - 21.09.09 - 27.09.09 27.09.09 21.09.09
_ Min-Zeit 06:30 16:15 17:45 - 00:00 - 06:00 06:45 00:00
Minimum _ 6,9 C 46 % 1018,5 hPa - 0,0 km/h - 6,0 C 7,1 C 0,0 km/h
Max-Datum _ 23.09.09 27.09.09 26.09.09 21.09.09 25.09.09 - 21.09.09 23.09.09 25.09.09
_ Max-Zeit 14:45 08:00 10:15 00:00 13:45 - 15:00 14:45 13:45
Maximum _ 25,9 C 98 % 1027,3 hPa 0,0 l/m 4,9 km/h
NW
- 17,1 C 25,8 C 16,1 km/h
N-NW
Durchschnitt _ 16,7 C 76 % 1023,4 hPa #0,0 l/m 0,6 km/h N-NW 12,2 C 16,7 C 2,9 km/h